| time (UTC) | temp C | wind direction | speed KPH | gust KPH | rain 1hr cm | rain 24hr cm | rain mn cm | humidity % | barometer mb |
| 20260503195003 | 23 | 360 | 0.0 | 9.7 | 0.00 | 0.00 | 0.00 | 50 | 1012.9 |
| 20260503194520 | 23 | 307 | 0.0 | 9.7 | 0.00 | 0.00 | 0.00 | 51 | 1013.0 |
| 20260503194005 | 23 | 46 | 1.6 | 9.7 | 0.00 | 0.00 | 0.00 | 49 | 1013.0 |
| 20260503193503 | 23 | 4 | 3.2 | 9.7 | 0.00 | 0.00 | 0.00 | 50 | 1013.1 |
| 20260503193015 | 23 | 355 | 0.0 | 8.0 | 0.00 | 0.00 | 0.00 | 52 | 1013.1 |
| 20260503192507 | 22 | 39 | 0.0 | 11.3 | 0.00 | 0.00 | 0.00 | 51 | 1013.1 |
| 20260503192007 | 23 | 356 | 4.8 | 11.3 | 0.00 | 0.00 | 0.00 | 50 | 1013.2 |
| 20260503191510 | 22 | 349 | 0.0 | 11.3 | 0.00 | 0.00 | 0.00 | 53 | 1013.2 |
| 20260503191003 | 23 | 6 | 3.2 | 8.0 | 0.00 | 0.00 | 0.00 | 47 | 1013.2 |
| 20260503190504 | 22 | 359 | 0.0 | 8.0 | 0.00 | 0.00 | 0.00 | 54 | 1013.2 |
| 20260503190014 | 22 | 1 | 3.2 | 11.3 | 0.00 | 0.00 | 0.00 | 49 | 1013.2 |
| 20260503185504 | 22 | 360 | 3.2 | 11.3 | 0.00 | 0.00 | 0.00 | 50 | 1013.3 |
| 20260503185005 | 22 | 338 | 1.6 | 11.3 | 0.00 | 0.00 | 0.00 | 54 | 1013.4 |
| 20260503184514 | 22 | 311 | 3.2 | 11.3 | 0.00 | 0.00 | 0.00 | 55 | 1013.5 |
| 20260503184006 | 22 | 359 | 0.0 | 8.0 | 0.00 | 0.00 | 0.00 | 59 | 1013.5 |
| 20260503183505 | 22 | 358 | 3.2 | 9.7 | 0.00 | 0.00 | 0.00 | 53 | 1013.5 |
| 20260503183020 | 22 | 348 | 0.0 | 9.7 | 0.00 | 0.00 | 0.00 | 54 | 1013.5 |
| 20260503182503 | 22 | 1 | 3.2 | 8.0 | 0.00 | 0.00 | 0.00 | 54 | 1013.6 |
| 20260503182006 | 21 | 8 | 0.0 | 8.0 | 0.00 | 0.00 | 0.00 | 58 | 1013.6 |
| 20260503181537 | 21 | 348 | 0.0 | 8.0 | 0.00 | 0.00 | 0.00 | 57 | 1013.5 |
| 20260503181006 | 21 | 359 | 0.0 | 6.4 | 0.00 | 0.00 | 0.00 | 58 | 1013.5 |
| 20260503180505 | 21 | 357 | 0.0 | 6.4 | 0.00 | 0.00 | 0.00 | 60 | 1013.6 |
| 20260503180026 | 21 | 360 | 0.0 | 9.7 | 0.00 | 0.00 | 0.00 | 57 | 1013.7 |
| 20260503175501 | 20 | 356 | 1.6 | 9.7 | 0.00 | 0.00 | 0.00 | 60 | 1013.7 |
| 20260503175001 | 20 | 329 | 0.0 | 6.4 | 0.00 | 0.00 | 0.00 | 58 | 1013.9 |
| 20260503174509 | 19 | 345 | 0.0 | 8.0 | 0.00 | 0.00 | 0.00 | 62 | 1013.9 |
| 20260503174004 | 20 | 359 | 3.2 | 8.0 | 0.00 | 0.00 | 0.00 | 62 | 1013.9 |
| 20260503173505 | 19 | 340 | 0.0 | 6.4 | 0.00 | 0.00 | 0.00 | 63 | 1014.0 |
| 20260503173009 | 19 | 353 | 0.0 | 6.4 | 0.00 | 0.00 | 0.00 | 62 | 1014.1 |
| 20260503172508 | 18 | 360 | 0.0 | 6.4 | 0.00 | 0.00 | 0.00 | 64 | 1014.1 |
| 20260503172005 | 18 | 346 | 1.6 | 8.0 | 0.00 | 0.00 | 0.00 | 64 | 1014.1 |
| 20260503171525 | 18 | 335 | 0.0 | 9.7 | 0.00 | 0.00 | 0.00 | 67 | 1014.1 |
| 20260503171005 | 18 | 360 | 3.2 | 9.7 | 0.00 | 0.00 | 0.00 | 65 | 1014.2 |
| 20260503170505 | 18 | 359 | 0.0 | 9.7 | 0.00 | 0.00 | 0.00 | 67 | 1014.3 |
| 20260503151008 | 13 | 4 | 0.0 | 3.2 | 0.00 | 0.00 | 0.00 | 85 | 1014.3 |
| 20260503110507 | 11 | 1 | 0.0 | 0.0 | 0.00 | 0.00 | 0.00 | 89 | 1014.6 |
| 20260503090503 | 12 | 1 | 0.0 | 0.0 | 0.00 | 0.00 | 0.00 | 82 | 1014.7 |
| 20260503081504 | 13 | 1 | 0.0 | 0.0 | 0.00 | 0.00 | 0.00 | 79 | 1014.6 |
| 20260503081009 | 13 | 1 | 0.0 | 0.0 | 0.00 | 0.00 | 0.00 | 82 | 1014.5 |
| 20260503080503 | 12 | 1 | 0.0 | 0.0 | 0.00 | 0.00 | 0.00 | 83 | 1014.5 |
| 20260503071507 | 13 | 1 | 0.0 | 0.0 | 0.00 | 0.00 | 0.00 | 76 | 1014.5 |
| 20260503055002 | 15 | 1 | 0.0 | 0.0 | 0.00 | 0.00 | 0.00 | 72 | 1014.5 |
| 20260503053016 | 15 | 1 | 0.0 | 0.0 | 0.00 | 0.00 | 0.00 | 72 | 1014.4 |
| 20260503052507 | 15 | 1 | 0.0 | 0.0 | 0.00 | 0.00 | 0.00 | 72 | 1014.5 |
| 20260503051004 | 15 | 1 | 0.0 | 0.0 | 0.00 | 0.00 | 0.00 | 70 | 1014.5 |
| 20260503050505 | 16 | 1 | 0.0 | 0.0 | 0.00 | 0.00 | 0.00 | 70 | 1014.5 |
| 20260503044511 | 16 | 1 | 0.0 | 0.0 | 0.00 | 0.00 | 0.00 | 69 | 1014.4 |
| 20260503043503 | 16 | 1 | 0.0 | 0.0 | 0.00 | 0.00 | 0.00 | 67 | 1014.3 |
| 20260503042503 | 16 | 1 | 0.0 | 0.0 | 0.00 | 0.00 | 0.00 | 65 | 1014.1 |
| 20260503042004 | 17 | 1 | 0.0 | 0.0 | 0.00 | 0.00 | 0.00 | 67 | 1014.1 |
| 20260503041517 | 17 | 1 | 0.0 | 0.0 | 0.00 | 0.00 | 0.00 | 62 | 1014.1 |
| 20260503041004 | 17 | 1 | 0.0 | 0.0 | 0.00 | 0.00 | 0.00 | 63 | 1014.0 |
| 20260503040509 | 17 | 1 | 0.0 | 0.0 | 0.00 | 0.00 | 0.00 | 66 | 1014.0 |
| 20260503040020 | 17 | 1 | 0.0 | 0.0 | 0.00 | 0.00 | 0.00 | 63 | 1014.0 |
| 20260503035003 | 17 | 1 | 0.0 | 0.0 | 0.00 | 0.00 | 0.00 | 61 | 1013.9 |
| 20260503033503 | 17 | 1 | 0.0 | 0.0 | 0.00 | 0.00 | 0.00 | 63 | 1013.7 |
| 20260503033008 | 18 | 1 | 0.0 | 0.0 | 0.00 | 0.00 | 0.00 | 62 | 1013.6 |
| 20260503032504 | 18 | 1 | 0.0 | 0.0 | 0.00 | 0.00 | 0.00 | 60 | 1013.5 |
| 20260503031505 | 18 | 1 | 0.0 | 0.0 | 0.00 | 0.00 | 0.00 | 62 | 1013.4 |
| 20260503031005 | 18 | 1 | 0.0 | 0.0 | 0.00 | 0.00 | 0.00 | 58 | 1013.3 |
| 20260503030506 | 18 | 1 | 0.0 | 0.0 | 0.00 | 0.00 | 0.00 | 60 | 1013.3 |
| 20260503025503 | 19 | 1 | 0.0 | 0.0 | 0.00 | 0.00 | 0.00 | 59 | 1013.2 |
| 20260503025003 | 19 | 1 | 0.0 | 0.0 | 0.00 | 0.00 | 0.00 | 59 | 1013.2 |
| 20260503024510 | 20 | 1 | 0.0 | 6.4 | 0.00 | 0.00 | 0.00 | 58 | 1013.2 |
| 20260503024004 | 20 | 1 | 0.0 | 6.4 | 0.00 | 0.00 | 0.00 | 57 | 1013.2 |
| 20260503023503 | 20 | 8 | 0.0 | 1.6 | 0.00 | 0.00 | 0.00 | 58 | 1013.1 |
| 20260503023016 | 20 | 8 | 0.0 | 1.6 | 0.00 | 0.00 | 0.00 | 58 | 1013.1 |
| 20260503022506 | 20 | 10 | 0.0 | 1.6 | 0.00 | 0.00 | 0.00 | 59 | 1013.2 |
| 20260503022004 | 20 | 9 | 0.0 | 4.8 | 0.00 | 0.00 | 0.00 | 59 | 1013.2 |
| 20260503020507 | 20 | 354 | 0.0 | 8.0 | 0.00 | 0.00 | 0.00 | 58 | 1013.1 |
| 20260503020012 | 20 | 354 | 0.0 | 9.7 | 0.00 | 0.00 | 0.00 | 58 | 1013.1 |
| 20260503015507 | 20 | 13 | 1.6 | 12.9 | 0.00 | 0.00 | 0.00 | 57 | 1013.2 |
| 20260503015009 | 20 | 338 | 1.6 | 12.9 | 0.00 | 0.00 | 0.00 | 57 | 1013.2 |
| 20260503014508 | 20 | 307 | 3.2 | 12.9 | 0.00 | 0.00 | 0.00 | 57 | 1013.2 |
| 20260503014003 | 20 | 1 | 3.2 | 11.3 | 0.00 | 0.00 | 0.00 | 58 | 1013.1 |
| 20260503013502 | 21 | 15 | 1.6 | 11.3 | 0.00 | 0.00 | 0.00 | 57 | 1013.1 |
| 20260503013010 | 21 | 359 | 0.0 | 9.7 | 0.00 | 0.00 | 0.00 | 58 | 1013.1 |
| 20260503012505 | 21 | 335 | 3.2 | 8.0 | 0.00 | 0.00 | 0.00 | 58 | 1013.2 |
| 20260503011524 | 21 | 359 | 3.2 | 11.3 | 0.00 | 0.00 | 0.00 | 58 | 1013.2 |
| 20260503010507 | 21 | 340 | 1.6 | 9.7 | 0.00 | 0.00 | 0.00 | 59 | 1013.1 |
| 20260503010021 | 21 | 349 | 4.8 | 14.5 | 0.00 | 0.00 | 0.00 | 59 | 1013.1 |
| 20260503005506 | 21 | 356 | 4.8 | 14.5 | 0.00 | 0.00 | 0.00 | 59 | 1013.2 |
| 20260503005005 | 21 | 339 | 3.2 | 12.9 | 0.00 | 0.00 | 0.00 | 59 | 1013.2 |
| 20260503004520 | 21 | 26 | 4.8 | 14.5 | 0.00 | 0.00 | 0.00 | 59 | 1013.3 |
| 20260503004009 | 21 | 318 | 3.2 | 14.5 | 0.00 | 0.00 | 0.00 | 60 | 1013.3 |
| 20260503003015 | 21 | 314 | 0.0 | 11.3 | 0.00 | 0.00 | 0.00 | 59 | 1013.3 |
| 20260503002506 | 21 | 1 | 3.2 | 11.3 | 0.00 | 0.00 | 0.00 | 59 | 1013.3 |
| 20260503002003 | 21 | 338 | 4.8 | 11.3 | 0.00 | 0.00 | 0.00 | 59 | 1013.3 |
| 20260503001510 | 22 | 360 | 0.0 | 9.7 | 0.00 | 0.00 | 0.00 | 59 | 1013.3 |
| 20260503000503 | 22 | 2 | 0.0 | 14.5 | 0.00 | 0.00 | 0.00 | 59 | 1013.4 |
| 20260502235505 | 22 | 345 | 1.6 | 14.5 | 0.00 | 0.00 | 0.00 | 59 | 1013.4 |
| 20260502235006 | 22 | 359 | 4.8 | 14.5 | 0.00 | 0.00 | 0.00 | 59 | 1013.6 |
| 20260502234533 | 22 | 1 | 3.2 | 16.1 | 0.00 | 0.00 | 0.00 | 59 | 1013.6 |
| 20260502234003 | 22 | 315 | 8.0 | 16.1 | 0.00 | 0.00 | 0.00 | 57 | 1013.7 |
| 20260502233508 | 22 | 355 | 3.2 | 12.9 | 0.00 | 0.00 | 0.00 | 58 | 1013.7 |
| 20260502232510 | 22 | 8 | 0.0 | 12.9 | 0.00 | 0.00 | 0.00 | 57 | 1013.8 |
| 20260502232005 | 22 | 14 | 1.6 | 12.9 | 0.00 | 0.00 | 0.00 | 58 | 1013.9 |
| 20260502231521 | 22 | 321 | 3.2 | 12.9 | 0.00 | 0.00 | 0.00 | 56 | 1014.0 |
| 20260502231007 | 22 | 357 | 1.6 | 14.5 | 0.00 | 0.00 | 0.00 | 58 | 1014.0 |
| 20260502230508 | 22 | 340 | 4.8 | 14.5 | 0.00 | 0.00 | 0.00 | 57 | 1014.2 |
| 20260502225508 | 22 | 296 | 3.2 | 14.5 | 0.00 | 0.00 | 0.00 | 58 | 1014.2 |
| 20260502225006 | 22 | 10 | 0.0 | 16.1 | 0.00 | 0.00 | 0.00 | 58 | 1014.2 |
| 20260502224514 | 22 | 27 | 4.8 | 16.1 | 0.00 | 0.00 | 0.00 | 59 | 1014.3 |
| 20260502224010 | 22 | 312 | 1.6 | 12.9 | 0.00 | 0.00 | 0.00 | 58 | 1014.4 |
| 20260502223506 | 21 | 32 | 0.0 | 12.9 | 0.00 | 0.00 | 0.00 | 60 | 1014.5 |
| 20260502223020 | 21 | 1 | 1.6 | 12.9 | 0.00 | 0.00 | 0.00 | 59 | 1014.5 |
| 20260502222508 | 22 | 360 | 1.6 | 11.3 | 0.00 | 0.00 | 0.00 | 59 | 1014.5 |
| 20260502222007 | 21 | 1 | 3.2 | 12.9 | 0.00 | 0.00 | 0.00 | 61 | 1014.6 |
| 20260502221524 | 21 | 332 | 3.2 | 12.9 | 0.00 | 0.00 | 0.00 | 61 | 1014.6 |
| 20260502220508 | 21 | 352 | 4.8 | 14.5 | 0.00 | 0.00 | 0.00 | 61 | 1014.7 |
| 20260502220028 | 21 | 293 | 6.4 | 9.7 | 0.00 | 0.00 | 0.00 | 62 | 1014.7 |
| 20260502215510 | 21 | 359 | 0.0 | 12.9 | 0.00 | 0.00 | 0.00 | 63 | 1014.7 |
| 20260502214006 | 21 | 345 | 3.2 | 11.3 | 0.00 | 0.00 | 0.00 | 63 | 1014.8 |
| 20260502213506 | 21 | 8 | 0.0 | 9.7 | 0.00 | 0.00 | 0.00 | 63 | 1014.9 |
| 20260502213028 | 21 | 282 | 4.8 | 12.9 | 0.00 | 0.00 | 0.00 | 63 | 1014.9 |
| 20260502212507 | 21 | 343 | 4.8 | 12.9 | 0.00 | 0.00 | 0.00 | 64 | 1015.0 |
| 20260502212008 | 21 | 9 | 3.2 | 9.7 | 0.00 | 0.00 | 0.00 | 65 | 1015.1 |
| 20260502211518 | 20 | 2 | 1.6 | 12.9 | 0.00 | 0.00 | 0.00 | 67 | 1015.1 |
| 20260502211008 | 20 | 14 | 3.2 | 12.9 | 0.00 | 0.00 | 0.00 | 64 | 1015.2 |
| 20260502210511 | 20 | 359 | 4.8 | 12.9 | 0.00 | 0.00 | 0.00 | 63 | 1015.1 |
| 20260502210026 | 20 | 345 | 4.8 | 12.9 | 0.00 | 0.00 | 0.00 | 64 | 1015.1 |
| 20260502205508 | 20 | 8 | 1.6 | 12.9 | 0.00 | 0.00 | 0.00 | 64 | 1015.1 |
| 20260502205008 | 20 | 359 | 4.8 | 9.7 | 0.00 | 0.00 | 0.00 | 63 | 1015.2 |
| 20260502204526 | 20 | 15 | 0.0 | 9.7 | 0.00 | 0.00 | 0.00 | 64 | 1015.3 |
| 20260502203512 | 20 | 310 | 3.2 | 12.9 | 0.00 | 0.00 | 0.00 | 63 | 1015.3 |
| 20260502203024 | 20 | 3 | 1.6 | 9.7 | 0.00 | 0.00 | 0.00 | 65 | 1015.4 |
| 20260502202505 | 20 | 359 | 3.2 | 12.9 | 0.00 | 0.00 | 0.00 | 65 | 1015.4 |
| 20260502202006 | 19 | 6 | 6.4 | 12.9 | 0.00 | 0.00 | 0.00 | 64 | 1015.5 |
| 20260502201531 | 19 | 359 | 1.6 | 12.9 | 0.00 | 0.00 | 0.00 | 66 | 1015.6 |
| 20260502201007 | 19 | 28 | 3.2 | 12.9 | 0.00 | 0.00 | 0.00 | 67 | 1015.7 |
| 20260502200507 | 19 | 341 | 4.8 | 9.7 | 0.00 | 0.00 | 0.00 | 66 | 1015.7 |
| 20260502200023 | 20 | 336 | 3.2 | 9.7 | 0.00 | 0.00 | 0.00 | 65 | 1015.8 |
| 20260502195512 | 20 | 1 | 0.0 | 6.4 | 0.00 | 0.00 | 0.00 | 64 | 1015.8 |